Time;durP1;ratioP1;P1;durP2;ratioP2;P2;SDS_P1;SDS_P2;PMS_P1;PMS_P2;Temp;Humidity;BMP_temperature;BMP_pressure;BME280_temperature;BME280_humidity;BME280_pressure;Samples;Min_cycle;Max_cycle;Signal;HPM_P1;HPM_P2
2022/07/01 00:01:38;;;;;;;22.93;18.07;;;;;;;12.27;100.00;101365.59;5195350;28;20100;-77
2022/07/01 00:04:11;;;;;;;22.05;18.13;;;;;;;12.23;100.00;101364.75;5195716;28;20031;-79
2022/07/01 00:06:42;;;;;;;21.42;17.17;;;;;;;12.21;100.00;101351.69;5195257;28;20100;-76
2022/07/01 00:09:14;;;;;;;23.17;18.17;;;;;;;12.15;100.00;101359.59;5195628;28;20022;-78
2022/07/01 00:11:45;;;;;;;22.73;19.03;;;;;;;12.13;100.00;101357.91;5195083;28;20022;-75
2022/07/01 00:14:16;;;;;;;22.60;17.87;;;;;;;12.12;100.00;101343.94;5194909;28;20026;-76
2022/07/01 00:16:48;;;;;;;26.47;18.37;;;;;;;12.07;100.00;101350.13;5195204;28;20038;-78
2022/07/01 00:19:19;;;;;;;24.73;18.80;;;;;;;12.04;100.00;101345.78;5195531;28;20030;-74
2022/07/01 00:21:52;;;;;;;23.40;20.07;;;;;;;12.06;100.00;101346.66;5194826;28;20293;-75
2022/07/01 00:24:23;;;;;;;26.55;19.83;;;;;;;12.10;100.00;101347.47;5194953;28;20030;-74
2022/07/01 00:26:54;;;;;;;25.57;21.27;;;;;;;12.13;100.00;101329.16;5194628;28;20124;-74
2022/07/01 00:29:26;;;;;;;26.47;20.87;;;;;;;12.17;100.00;101334.34;5195387;28;20471;-75
2022/07/01 00:31:57;;;;;;;25.67;19.80;;;;;;;12.25;100.00;101336.84;5177787;28;20038;-75
2022/07/01 00:34:28;;;;;;;25.97;20.70;;;;;;;12.23;100.00;101325.56;5195592;28;20030;-75
2022/07/01 00:37:00;;;;;;;26.67;20.07;;;;;;;12.25;100.00;101320.31;5195323;28;20196;-74
2022/07/01 00:39:33;;;;;;;24.27;20.33;;;;;;;12.28;100.00;101315.03;5195189;28;20112;-75
2022/07/01 00:42:06;;;;;;;25.98;20.77;;;;;;;12.21;100.00;101309.03;5194924;28;20042;-75
2022/07/01 00:44:37;;;;;;;25.73;20.02;;;;;;;12.19;100.00;101310.81;5195048;28;20026;-75
2022/07/01 00:47:13;;;;;;;23.70;19.77;;;;;;;12.27;100.00;101316.81;5195109;28;20033;-76
2022/07/01 00:49:47;;;;;;;24.90;19.98;;;;;;;12.22;100.00;101314.25;5195386;28;20552;-75
2022/07/01 00:52:19;;;;;;;24.67;19.63;;;;;;;12.29;100.00;101314.19;5195888;28;20056;-76
2022/07/01 00:54:52;;;;;;;25.57;19.03;;;;;;;12.27;100.00;101318.53;5195616;28;20030;-75
2022/07/01 00:57:30;;;;;;;24.05;19.08;;;;;;;12.32;100.00;101322.84;5208273;28;20118;-74
2022/07/01 01:00:05;;;;;;;26.08;19.50;;;;;;;12.40;100.00;101328.84;5200981;28;20026;-75
2022/07/01 01:02:43;;;;;;;30.08;20.15;;;;;;;12.34;100.00;101325.44;5196166;28;20030;-76
2022/07/01 01:05:14;;;;;;;24.23;19.33;;;;;;;12.43;100.00;101334.91;5194561;28;20060;-76
2022/07/01 01:07:47;;;;;;;26.60;19.27;;;;;;;12.42;100.00;101347.13;5194638;28;20058;-75
2022/07/01 01:10:19;;;;;;;25.15;18.83;;;;;;;12.40;100.00;101355.00;5194248;28;20026;-73
2022/07/01 01:12:50;;;;;;;21.90;18.92;;;;;;;12.43;100.00;101337.53;5194854;28;20037;-75
2022/07/01 01:15:22;;;;;;;22.83;20.30;;;;;;;12.46;100.00;101356.69;5194816;28;20026;-75
2022/07/01 01:17:53;;;;;;;24.80;19.57;;;;;;;12.45;100.00;101357.56;5177193;28;20427;-75
2022/07/01 01:20:25;;;;;;;26.27;19.87;;;;;;;12.40;100.00;101365.44;5194620;28;20033;-74
2022/07/01 01:22:56;;;;;;;25.67;19.83;;;;;;;12.47;100.00;101375.84;5194588;28;20815;-74
2022/07/01 01:25:28;;;;;;;28.03;21.37;;;;;;;12.46;100.00;101374.09;5176450;28;20456;-75
2022/07/01 01:28:03;;;;;;;26.17;20.00;;;;;;;12.48;100.00;101372.34;5176809;28;20375;-75
2022/07/01 01:30:35;;;;;;;26.50;20.17;;;;;;;12.47;100.00;101370.63;5194228;28;20037;-74
2022/07/01 01:33:08;;;;;;;26.90;19.92;;;;;;;12.53;100.00;101376.63;5193649;28;20031;-75
2022/07/01 01:35:40;;;;;;;;;;;;;;;12.52;100.00;101371.41;5194630;28;20027;-76
2022/07/01 01:38:12;;;;;;;24.83;20.77;;;;;;;12.57;100.00;101374.84;5193863;28;19926;-76
2022/07/01 01:40:43;;;;;;;30.30;20.73;;;;;;;12.55;100.00;101368.78;5176143;28;20058;-75
2022/07/01 01:43:16;;;;;;;30.08;23.15;;;;;;;12.58;100.00;101366.97;5193749;28;20540;-74
2022/07/01 01:45:48;;;;;;;29.42;22.45;;;;;;;12.62;100.00;101369.56;5194149;28;20027;-74
2022/07/01 01:48:19;;;;;;;32.70;22.15;;;;;;;12.60;100.00;101372.19;5193395;28;20037;-75
2022/07/01 01:50:50;;;;;;;31.00;23.30;;;;;;;12.57;100.00;101367.88;5193979;28;20044;-75
2022/07/01 01:53:22;;;;;;;31.10;23.20;;;;;;;12.66;100.00;101372.13;5193502;28;20132;-75
2022/07/01 01:55:53;;;;;;;28.93;23.00;;;;;;;12.62;100.00;101365.19;5193675;28;20110;-77
2022/07/01 01:58:25;;;;;;;30.23;22.53;;;;;;;12.69;100.00;101372.09;5193183;28;20101;-75
2022/07/01 02:00:57;;;;;;;34.38;22.70;;;;;;;12.67;100.00;101366.03;5192624;28;20147;-77
2022/07/01 02:03:29;;;;;;;32.53;24.70;;;;;;;12.68;100.00;101375.59;5192946;28;20030;-75
2022/07/01 02:06:00;;;;;;;36.00;23.80;;;;;;;12.60;100.00;101380.03;5193297;28;20030;-76
2022/07/01 02:08:31;;;;;;;32.97;23.77;;;;;;;12.60;100.00;101382.66;5174832;28;20128;-76
2022/07/01 02:11:03;;;;;;;33.40;23.23;;;;;;;12.59;100.00;101388.78;5193326;28;20446;-75
2022/07/01 02:13:36;;;;;;;33.53;23.75;;;;;;;12.61;100.00;101397.47;5193011;28;20482;-74
2022/07/01 02:16:07;;;;;;;;;;;;;;;12.58;100.00;101387.91;5193222;28;20619;-73
2022/07/01 02:18:39;;;;;;;31.33;23.77;;;;;;;12.56;100.00;101397.53;5192871;28;19914;-75
2022/07/01 02:21:10;;;;;;;35.73;24.50;;;;;;;12.56;100.00;101401.91;5192462;28;20454;-75
2022/07/01 02:23:41;;;;;;;28.87;22.37;;;;;;;12.55;100.00;101406.25;5193037;28;20065;-75
2022/07/01 02:26:13;;;;;;;30.33;24.27;;;;;;;12.53;100.00;101415.84;5193156;28;20031;-74
2022/07/01 02:28:44;;;;;;;30.50;23.23;;;;;;;12.58;100.00;101418.44;5192524;28;20053;-75
2022/07/01 02:31:16;;;;;;;29.73;22.87;;;;;;;12.57;100.00;101421.91;5192871;28;20096;-76
2022/07/01 02:33:48;;;;;;;30.13;22.70;;;;;;;12.55;100.00;101389.69;5192670;28;20037;-77
2022/07/01 02:36:19;;;;;;;28.77;22.40;;;;;;;12.52;100.00;101360.97;5192846;28;20038;-75
2022/07/01 02:38:50;;;;;;;30.60;22.63;;;;;;;12.50;100.00;101374.06;5192796;28;20563;-74
2022/07/01 02:41:22;;;;;;;33.40;23.80;;;;;;;12.48;100.00;101386.28;5192359;28;20026;-75
2022/07/01 02:43:53;;;;;;;31.83;23.07;;;;;;;12.47;100.00;101384.53;5192667;28;20421;-75
2022/07/01 02:46:24;;;;;;;29.90;22.53;;;;;;;12.44;100.00;101384.56;5192736;28;20088;-76
2022/07/01 02:48:56;;;;;;;30.10;21.50;;;;;;;12.46;100.00;101395.03;5192844;28;20053;-73
2022/07/01 02:51:27;;;;;;;31.60;23.53;;;;;;;12.48;100.00;101409.81;5192741;28;20081;-73
2022/07/01 02:53:58;;;;;;;32.97;23.33;;;;;;;12.46;100.00;101401.13;5192683;28;20034;-74
2022/07/01 02:56:29;;;;;;;35.50;25.53;;;;;;;12.45;100.00;101406.38;5193495;28;20031;-73
2022/07/01 02:59:01;;;;;;;36.47;24.27;;;;;;;12.46;100.00;101418.56;5193254;28;20377;-73
2022/07/01 03:01:32;;;;;;;37.53;24.47;;;;;;;12.46;100.00;101406.38;5206417;28;20134;-72
2022/07/01 03:04:04;;;;;;;33.67;24.43;;;;;;;12.50;100.00;101401.97;5185154;28;20018;-74
2022/07/01 03:06:35;;;;;;;35.27;25.53;;;;;;;12.48;100.00;101399.34;5193109;28;20077;-74
2022/07/01 03:09:07;;;;;;;35.20;25.63;;;;;;;12.48;100.00;101401.13;5193225;28;20030;-74
2022/07/01 03:11:38;;;;;;;35.83;26.97;;;;;;;12.50;100.00;101410.66;5193018;28;20141;-74
2022/07/01 03:14:09;;;;;;;36.27;27.73;;;;;;;12.48;100.00;101411.56;5192870;28;20417;-75
2022/07/01 03:16:41;;;;;;;34.80;29.07;;;;;;;12.43;100.00;101413.34;5192985;28;20022;-76
2022/07/01 03:19:13;;;;;;;42.83;29.07;;;;;;;12.43;100.00;101409.00;5192706;28;20465;-75
2022/07/01 03:21:44;;;;;;;38.85;29.48;;;;;;;12.38;100.00;101409.06;5196617;28;20042;-74
2022/07/01 03:24:15;;;;;;;41.70;28.83;;;;;;;12.33;100.00;101402.13;5196390;28;20023;-74
2022/07/01 03:26:47;;;;;;;39.80;29.20;;;;;;;12.33;100.00;101413.47;5196551;28;20022;-75
2022/07/01 03:29:18;;;;;;;39.87;29.23;;;;;;;12.33;100.00;101407.34;5197493;28;20062;-74
2022/07/01 03:31:49;;;;;;;43.17;30.37;;;;;;;12.33;100.00;101399.50;5196579;28;20140;-74
2022/07/01 03:34:22;;;;;;;43.67;30.77;;;;;;;12.28;100.00;101410.00;5196134;28;20030;-75
2022/07/01 03:36:53;;;;;;;;;;;;;;;12.26;100.00;101426.59;5197678;28;20517;-76
2022/07/01 03:39:26;;;;;;;40.97;29.83;;;;;;;12.26;100.00;101445.75;5196295;28;19928;-75
2022/07/01 03:41:57;;;;;;;42.92;29.60;;;;;;;12.29;100.00;101448.34;5196008;28;20030;-75
2022/07/01 03:44:28;;;;;;;39.60;30.87;;;;;;;12.31;100.00;101445.72;5196205;28;20026;-77
2022/07/01 03:47:00;;;;;;;40.03;29.83;;;;;;;12.32;100.00;101448.31;5178536;28;20089;-75
2022/07/01 03:49:35;;;;;;;41.63;31.73;;;;;;;12.28;100.00;101451.84;5195982;28;20105;-75
2022/07/01 03:52:06;;;;;;;43.30;31.23;;;;;;;12.23;100.00;101464.09;5195848;28;20188;-74
2022/07/01 03:54:38;;;;;;;43.93;32.10;;;;;;;12.22;100.00;101463.22;5196052;28;20027;-74
2022/07/01 03:57:09;;;;;;;38.67;30.53;;;;;;;12.34;100.00;101464.84;5196157;28;20056;-74
2022/07/01 03:59:41;;;;;;;44.83;32.10;;;;;;;12.38;100.00;101469.19;5196123;28;20034;-74
2022/07/01 04:02:12;;;;;;;44.37;33.07;;;;;;;12.42;100.00;101471.78;5195167;28;20072;-74
2022/07/01 04:04:43;;;;;;;44.60;33.20;;;;;;;12.38;100.00;101478.75;5195421;28;20044;-73
2022/07/01 04:07:15;;;;;;;43.37;31.33;;;;;;;12.40;100.00;101477.88;5195425;28;20398;-74
2022/07/01 04:09:46;;;;;;;36.80;29.90;;;;;;;12.46;100.00;101470.84;5195580;28;20042;-76
2022/07/01 04:12:18;;;;;;;43.93;33.80;;;;;;;12.40;100.00;101477.03;5195680;28;20088;-76
2022/07/01 04:14:50;;;;;;;43.08;36.78;;;;;;;12.36;100.00;101468.34;5195695;28;20034;-74
2022/07/01 04:17:22;;;;;;;45.23;37.43;;;;;;;12.30;100.00;101465.78;5195444;28;20461;-74
2022/07/01 04:19:53;;;;;;;48.23;36.67;;;;;;;12.36;100.00;101476.19;5194952;28;20581;-72
2022/07/01 04:22:35;;;;;;;43.67;34.67;;;;;;;12.34;100.00;101475.31;5195023;28;20045;-76
2022/07/01 04:25:07;;;;;;;39.67;30.42;;;;;;;12.31;100.00;101467.50;5195143;28;20038;-74
2022/07/01 04:27:38;;;;;;;37.50;29.48;;;;;;;12.36;100.00;101460.50;5195131;28;20023;-75
2022/07/01 04:30:10;;;;;;;34.50;28.63;;;;;;;12.38;100.00;101466.56;5195006;28;20030;-75
2022/07/01 04:32:42;;;;;;;31.53;26.73;;;;;;;12.41;100.00;101473.50;5194142;28;20042;-73
2022/07/01 04:35:14;;;;;;;31.50;24.97;;;;;;;12.37;100.00;101477.03;5195113;28;20369;-75
2022/07/01 04:37:46;;;;;;;34.17;24.77;;;;;;;12.34;100.00;101474.44;5195009;28;20026;-75
2022/07/01 04:40:17;;;;;;;30.65;23.50;;;;;;;12.29;100.00;101477.09;5194692;28;20069;-75
2022/07/01 04:42:49;;;;;;;30.87;23.03;;;;;;;12.30;100.00;101483.19;5195554;28;20343;-74
2022/07/01 04:45:20;;;;;;;28.93;21.93;;;;;;;12.28;100.00;101484.97;5194984;28;20037;-75
2022/07/01 04:47:51;;;;;;;26.63;21.80;;;;;;;12.33;100.00;101485.78;5195303;28;20062;-75
2022/07/01 04:50:23;;;;;;;29.73;21.93;;;;;;;12.22;100.00;101483.28;5194690;28;20096;-75
2022/07/01 04:52:54;;;;;;;26.07;20.40;;;;;;;12.28;100.00;101482.34;5194758;28;20616;-75
2022/07/01 04:55:25;;;;;;;28.13;19.13;;;;;;;12.26;100.00;101486.72;5194802;28;20026;-75
2022/07/01 04:57:57;;;;;;;25.30;21.30;;;;;;;12.32;100.00;101484.06;5194790;28;20026;-75
2022/07/01 05:00:29;;;;;;;27.83;22.27;;;;;;;12.38;100.00;101477.03;5195456;28;20062;-74
2022/07/01 05:03:01;;;;;;;;;;;;;;;12.47;100.00;101476.06;5194982;28;20026;-74
2022/07/01 05:05:32;;;;;;;24.25;19.15;;;;;;;12.50;100.00;101480.41;5201795;28;19923;-75
2022/07/01 05:08:04;;;;;;;23.83;19.40;;;;;;;12.56;100.00;101493.44;5202978;28;20125;-73
2022/07/01 05:10:36;;;;;;;24.38;19.15;;;;;;;12.65;100.00;101495.06;5195156;28;20036;-74
2022/07/01 05:13:07;;;;;;;23.53;18.77;;;;;;;12.75;100.00;101499.31;5194067;28;20038;-74
2022/07/01 05:15:39;;;;;;;24.43;18.13;;;;;;;12.83;100.00;101500.13;5194244;28;20326;-73
2022/07/01 05:23:50;;;;;;;17.63;14.27;;;;;;;12.73;100.00;101491.50;5194154;28;20042;-76
2022/07/01 05:26:22;;;;;;;21.77;14.30;;;;;;;12.74;100.00;101498.47;5194497;28;20026;-73
2022/07/01 05:28:54;;;;;;;18.88;15.38;;;;;;;12.88;100.00;101494.81;5193998;28;20045;-74
2022/07/01 05:31:25;;;;;;;20.07;14.50;;;;;;;12.87;100.00;101493.97;5194187;28;20478;-74
2022/07/01 05:33:57;;;;;;;19.30;13.67;;;;;;;12.90;100.00;101491.31;5194192;28;20045;-74
2022/07/01 05:36:28;;;;;;;17.23;13.33;;;;;;;13.00;100.00;101499.06;5194107;28;20462;-74
2022/07/01 05:39:00;;;;;;;16.43;13.63;;;;;;;13.06;100.00;101493.78;5193861;28;20128;-75
2022/07/01 05:41:32;;;;;;;20.52;14.27;;;;;;;12.98;100.00;101506.09;5193903;28;20097;-75
2022/07/01 05:44:05;;;;;;;18.05;14.63;;;;;;;12.91;100.00;101494.78;5194145;28;20034;-74
2022/07/01 05:46:36;;;;;;;;;;;;;;;13.01;100.00;101498.16;5195080;28;20393;-74
2022/07/01 05:49:08;;;;;;;17.40;15.10;;;;;;;12.86;100.00;101496.59;5193722;28;19918;-73
2022/07/01 05:51:41;;;;;;;18.27;15.00;;;;;;;12.81;100.00;101498.41;5193769;28;20934;-75
2022/07/01 05:54:12;;;;;;;16.73;14.93;;;;;;;12.81;100.00;101503.63;5193379;28;20149;-75
2022/07/01 05:56:43;;;;;;;19.37;14.90;;;;;;;12.85;100.00;101503.59;5193721;28;20072;-75
2022/07/01 05:59:15;;;;;;;18.70;15.57;;;;;;;13.00;100.00;101502.56;5175907;28;20077;-77
2022/07/01 06:01:47;;;;;;;28.90;16.63;;;;;;;13.18;100.00;101508.47;5193547;28;20109;-76
2022/07/01 06:04:18;;;;;;;19.98;16.48;;;;;;;13.11;100.00;101502.44;5194054;28;20034;-76
2022/07/01 06:06:50;;;;;;;19.30;15.53;;;;;;;13.14;100.00;101500.63;5193354;28;20362;-74
2022/07/01 06:09:21;;;;;;;25.83;17.80;;;;;;;13.03;100.00;101502.53;5193031;28;20026;-76
2022/07/01 06:11:53;;;;;;;20.90;15.48;;;;;;;12.97;100.00;101502.59;5192656;28;20058;-76
2022/07/01 06:14:25;;;;;;;19.40;16.30;;;;;;;13.00;100.00;101507.78;5193516;28;20116;-75
2022/07/01 06:16:56;;;;;;;19.50;16.10;;;;;;;13.02;100.00;101508.63;5193341;28;20031;-75
2022/07/01 06:19:28;;;;;;;17.50;14.60;;;;;;;13.02;100.00;101508.63;5193254;28;20030;-77
2022/07/01 06:21:59;;;;;;;20.67;14.80;;;;;;;13.13;100.00;101511.97;5193630;28;20461;-74
2022/07/01 06:24:31;;;;;;;18.70;14.60;;;;;;;13.19;100.00;101499.72;5192942;28;20090;-73
2022/07/01 06:27:04;;;;;;;19.13;14.83;;;;;;;13.13;100.00;101506.75;5193333;28;20026;-76
2022/07/01 06:29:36;;;;;;;20.33;13.05;;;;;;;13.03;100.00;101499.91;5193017;28;20026;-77
2022/07/01 06:32:07;;;;;;;;;;;;;;;13.06;100.00;101505.09;5193357;28;20043;-75
2022/07/01 06:34:39;;;;;;;16.20;12.68;;;;;;;13.04;100.00;101500.75;5192814;28;19921;-76
2022/07/01 06:37:10;;;;;;;17.83;12.23;;;;;;;13.05;100.00;101498.13;5192857;28;20018;-77
2022/07/01 06:39:42;;;;;;;16.20;12.67;;;;;;;13.23;100.00;101501.41;5192967;28;20042;-76
2022/07/01 06:42:14;;;;;;;20.60;12.93;;;;;;;13.34;100.00;101502.16;5175119;28;20346;-77
2022/07/01 06:44:45;;;;;;;15.93;11.95;;;;;;;13.55;100.00;101497.53;5175232;28;20557;-75
2022/07/01 06:47:18;;;;;;;15.67;10.83;;;;;;;13.53;100.00;101499.31;5192930;28;20179;-76
2022/07/01 06:49:49;;;;;;;14.57;10.77;;;;;;;13.64;99.70;101498.28;5193816;28;20053;-77
2022/07/01 06:52:21;;;;;;;13.63;11.50;;;;;;;13.67;99.53;101486.91;5193510;28;20065;-76
2022/07/01 06:54:52;;;;;;;13.60;10.00;;;;;;;13.71;97.59;101500.81;5194875;28;20026;-76
2022/07/01 06:57:24;;;;;;;17.97;10.07;;;;;;;13.79;96.88;101504.19;5196998;28;20030;-77
2022/07/01 06:59:55;;;;;;;12.67;9.43;;;;;;;13.79;96.11;101502.44;5197737;28;20089;-75
2022/07/01 07:02:28;;;;;;;14.97;8.73;;;;;;;13.90;94.80;101504.91;5197693;28;20065;-75
2022/07/01 07:04:59;;;;;;;12.07;8.80;;;;;;;14.00;94.60;101506.47;5199109;28;20030;-75
2022/07/01 07:07:31;;;;;;;14.07;8.57;;;;;;;14.00;93.42;101511.72;5197966;28;20026;-76
2022/07/01 07:10:02;;;;;;;16.10;8.00;;;;;;;14.20;94.63;101519.28;5198250;28;20162;-76
2022/07/01 07:12:34;;;;;;;16.07;7.50;;;;;;;14.25;92.61;101520.94;5203890;28;20441;-75
2022/07/01 07:15:07;;;;;;;9.70;6.57;;;;;;;14.41;91.55;101533.78;5200193;28;20105;-76
2022/07/01 07:17:38;;;;;;;10.05;5.30;;;;;;;14.33;87.73;101535.69;5198616;28;20092;-76
2022/07/01 07:20:11;;;;;;;8.27;5.10;;;;;;;14.28;86.26;101545.41;5198241;28;20457;-78
2022/07/01 07:22:42;;;;;;;7.38;3.75;;;;;;;14.26;84.35;101526.16;5198155;28;20037;-77
2022/07/01 07:25:14;;;;;;;11.03;4.30;;;;;;;14.28;84.87;101534.91;5197387;28;20034;-77
2022/07/01 07:27:46;;;;;;;10.53;4.23;;;;;;;14.28;86.02;101529.66;5198065;28;20500;-75
2022/07/01 07:30:18;;;;;;;10.70;4.38;;;;;;;14.45;87.74;101534.59;5202839;28;20121;-75
2022/07/01 07:32:50;;;;;;;7.90;3.05;;;;;;;14.52;84.42;101531.00;5208792;28;20042;-75
2022/07/01 07:35:22;;;;;;;9.20;3.67;;;;;;;14.52;87.32;101531.00;5209931;28;20108;-75
2022/07/01 07:37:55;;;;;;;;;;;;;;;14.60;86.41;101538.75;5207975;28;20030;-75
2022/07/01 07:40:26;;;;;;;8.30;2.92;;;;;;;14.58;81.48;101537.88;5207109;28;19922;-75
2022/07/01 07:42:58;;;;;;;7.17;3.43;;;;;;;14.51;82.59;101546.78;5204160;28;20084;-75
2022/07/01 07:45:29;;;;;;;10.63;2.70;;;;;;;14.58;85.93;101546.59;5199512;28;20046;-76
2022/07/01 07:48:01;;;;;;;5.87;2.27;;;;;;;14.61;81.22;101547.50;5181072;28;20038;-79
2022/07/01 07:50:33;;;;;;;6.22;2.80;;;;;;;14.77;81.44;101551.59;5198265;28;20241;-76
2022/07/01 07:53:06;;;;;;;6.33;2.67;;;;;;;14.98;81.84;101547.69;5198363;28;20022;-75
2022/07/01 07:55:37;;;;;;;4.60;2.30;;;;;;;15.02;78.07;101551.13;5180366;28;20041;-77
2022/07/01 07:58:09;;;;;;;8.23;3.00;;;;;;;15.12;75.87;101565.81;5197395;28;20034;-77
2022/07/01 08:00:41;;;;;;;8.30;2.20;;;;;;;15.28;73.47;101555.88;5196814;28;20030;-76
2022/07/01 08:03:13;;;;;;;;;;;;;;;15.39;73.98;101561.78;5197495;28;20026;-76
2022/07/01 08:05:44;;;;;;;4.20;1.67;;;;;;;15.50;71.35;101554.53;5196406;28;19924;-76
2022/07/01 08:08:15;;;;;;;3.77;1.47;;;;;;;15.65;73.28;101566.47;5196685;28;20308;-78
2022/07/01 08:10:47;;;;;;;5.57;1.73;;;;;;;15.71;70.50;101568.09;5196706;28;20077;-76
2022/07/01 08:13:18;;;;;;;5.07;1.80;;;;;;;15.78;68.57;101574.16;5195712;28;20141;-76
2022/07/01 08:15:49;;;;;;;5.83;2.00;;;;;;;15.78;68.40;101576.78;5196619;28;20101;-77
2022/07/01 08:18:22;;;;;;;4.37;1.70;;;;;;;15.79;66.72;101586.38;5196105;28;20034;-76
2022/07/01 08:20:54;;;;;;;5.18;2.00;;;;;;;15.86;67.71;101582.72;5196232;28;20042;-76
2022/07/01 08:23:25;;;;;;;7.90;1.90;;;;;;;15.85;66.70;101584.47;5195846;28;20030;-78
2022/07/01 08:25:56;;;;;;;4.77;1.70;;;;;;;15.96;69.24;101592.13;5196425;28;20050;-79
2022/07/01 08:28:28;;;;;;;5.53;1.70;;;;;;;16.06;68.76;101591.94;5197216;28;20081;-75
2022/07/01 08:30:59;;;;;;;3.77;1.97;;;;;;;16.22;70.68;101588.03;5196015;28;20062;-78
2022/07/01 08:33:30;;;;;;;5.97;1.93;;;;;;;16.42;67.65;101592.81;5196369;28;20026;-78
2022/07/01 08:36:02;;;;;;;4.17;1.63;;;;;;;16.45;64.63;101598.00;5196044;28;20517;-77
2022/07/01 08:38:34;;;;;;;9.03;2.07;;;;;;;16.56;64.85;101593.34;5195957;28;20088;-77
2022/07/01 08:41:06;;;;;;;2.80;1.20;;;;;;;16.61;65.16;101592.38;5195233;28;20085;-77
2022/07/01 08:43:38;;;;;;;7.57;2.07;;;;;;;16.48;63.70;101597.94;5195870;28;20470;-77
2022/07/01 08:46:10;;;;;;;4.20;1.38;;;;;;;16.60;65.52;101596.78;5195839;28;20030;-77
2022/07/01 08:48:44;;;;;;;5.50;1.80;;;;;;;16.77;64.48;101602.47;5195647;28;20041;-76
2022/07/01 08:51:15;;;;;;;5.35;2.08;;;;;;;16.73;64.72;101603.47;5195343;28;20430;-76
2022/07/01 08:53:47;;;;;;;6.80;2.10;;;;;;;17.01;64.51;101612.44;5195432;28;20097;-77
2022/07/01 08:59:20;;;;;;;6.65;1.80;;;;;;;17.35;62.61;101633.47;5195988;28;20441;-78
2022/07/01 09:02:00;;;;;;;4.53;1.48;;;;;;;17.48;61.68;101626.97;5195906;28;20377;-77
2022/07/01 09:04:32;;;;;;;7.95;2.08;;;;;;;17.66;63.20;101622.94;5196616;28;20026;-77
2022/07/01 09:07:09;;;;;;;4.07;1.52;;;;;;;17.94;60.87;101622.13;5195720;28;20070;-76
2022/07/01 09:09:42;;;;;;;6.35;1.70;;;;;;;17.72;59.90;101621.88;5195305;28;20168;-76
2022/07/01 09:12:15;;;;;;;3.78;1.50;;;;;;;17.80;59.64;101627.78;5195124;28;20037;-77
2022/07/01 09:14:47;;;;;;;4.90;1.95;;;;;;;17.70;59.17;101623.69;5196787;28;20035;-79
2022/07/01 09:17:20;;;;;;;6.80;2.33;;;;;;;17.69;60.88;101624.59;5199846;28;20462;-76
2022/07/01 09:19:51;;;;;;;7.95;2.00;;;;;;;17.93;59.65;101609.84;5202395;28;20026;-80
2022/07/01 09:22:23;;;;;;;8.17;2.10;;;;;;;17.91;60.41;101611.69;5178836;28;20031;-78
2022/07/01 09:24:54;;;;;;;5.05;1.80;;;;;;;18.01;57.40;101623.66;5195860;28;20042;-76
2022/07/01 09:27:26;;;;;;;5.63;1.77;;;;;;;17.85;56.74;101632.94;5195200;28;20034;-75
2022/07/01 09:30:00;;;;;;;6.77;3.00;;;;;;;17.77;56.95;101632.28;5196740;28;20085;-78
2022/07/01 09:32:33;;;;;;;7.50;2.10;;;;;;;17.97;57.85;101621.19;5196086;28;20517;-79
2022/07/01 09:35:04;;;;;;;;;;;;;;;18.22;56.98;101613.38;5195886;28;20511;-76
2022/07/01 09:37:35;;;;;;;7.75;2.45;;;;;;;18.12;55.21;101633.03;5195433;28;19917;-75
2022/07/01 09:40:07;;;;;;;5.53;2.07;;;;;;;18.14;55.23;101632.06;5195297;28;20046;-77
2022/07/01 09:42:45;;;;;;;7.43;1.98;;;;;;;18.34;56.17;101626.19;5195263;28;20120;-76
2022/07/01 09:45:18;;;;;;;7.60;1.85;;;;;;;18.59;55.49;101638.56;5195043;28;20026;-77
2022/07/01 09:47:49;;;;;;;3.88;1.90;;;;;;;18.42;52.92;101631.22;5195012;28;20656;-79
2022/07/01 09:50:21;;;;;;;5.10;1.77;;;;;;;18.85;54.05;101621.91;5194833;28;20029;-77
2022/07/01 09:52:54;;;;;;;6.40;2.00;;;;;;;19.27;54.48;101631.91;5177137;28;20062;-79
2022/07/01 09:55:27;;;;;;;7.22;3.15;;;;;;;18.78;53.81;101636.19;5177329;28;20036;-75
2022/07/01 09:57:58;;;;;;;7.90;2.92;;;;;;;18.38;55.02;101643.63;5194222;28;20023;-76
2022/07/01 10:00:31;;;;;;;5.70;2.70;;;;;;;18.65;56.28;101638.38;5194245;28;20603;-76
2022/07/01 10:03:06;;;;;;;4.85;2.03;;;;;;;18.96;56.22;101637.38;5195113;28;20022;-78
2022/07/01 10:05:53;;;;;;;5.95;1.52;;;;;;;19.06;51.76;101640.56;5194703;28;20149;-77
2022/07/01 10:08:39;;;;;;;4.55;1.70;;;;;;;19.36;51.28;101641.25;5194866;28;20026;-74
2022/07/01 10:11:47;;;;;;;4.95;1.67;;;;;;;19.54;50.95;101638.88;5177017;28;20117;-77
2022/07/01 10:14:20;;;;;;;5.20;1.58;;;;;;;20.50;48.42;101662.56;5194443;28;20157;-75
2022/07/01 10:16:52;;;;;;;6.03;2.20;;;;;;;20.75;47.51;101665.09;5194541;28;20084;-80
2022/07/01 10:19:26;;;;;;;3.87;1.70;;;;;;;22.08;44.11;101656.63;5177477;28;20034;-80
2022/07/01 10:22:24;;;;;;;4.78;1.95;;;;;;;23.96;42.67;101671.91;5177414;28;20108;-80
2022/07/01 10:25:16;;;;;;;6.97;1.75;;;;;;;24.46;37.73;101669.16;5194637;28;20080;-78
2022/07/01 10:28:16;;;;;;;5.33;1.60;;;;;;;24.14;39.23;101677.16;5194170;28;20390;-81
2022/07/01 10:30:50;;;;;;;4.78;1.52;;;;;;;23.93;37.44;101681.88;5193883;28;20041;-82
2022/07/01 10:33:32;;;;;;;5.82;1.73;;;;;;;23.90;39.38;101682.06;5194551;28;20133;-80
2022/07/01 10:36:17;;;;;;;3.27;1.47;;;;;;;24.51;38.75;101683.06;5194827;28;20038;-80
2022/07/01 10:39:13;;;;;;;3.42;1.45;;;;;;;22.90;40.69;101680.97;5161405;28;20284;-81
2022/07/01 10:41:53;;;;;;;5.40;2.05;;;;;;;22.09;43.02;101680.44;5195516;28;20387;-79
2022/07/01 10:44:27;;;;;;;4.38;1.30;;;;;;;22.30;40.77;101683.03;5193953;28;20027;-78
2022/07/01 10:47:08;;;;;;;5.05;1.70;;;;;;;24.89;38.59;101677.31;5194653;28;20031;-80
2022/07/01 10:49:46;;;;;;;4.18;1.40;;;;;;;25.37;37.08;101672.69;5194209;28;20085;-78
2022/07/01 10:52:26;;;;;;;3.88;1.48;;;;;;;25.59;35.58;101666.88;5194733;28;20022;-79
2022/07/01 10:55:00;;;;;;;4.47;1.63;;;;;;;26.29;34.97;101670.53;5194842;28;20037;-78
2022/07/01 10:57:39;;;;;;;4.05;1.20;;;;;;;26.47;35.53;101658.63;5194786;28;20022;-78
2022/07/01 11:00:10;;;;;;;6.20;1.83;;;;;;;26.06;33.81;101656.84;5177776;28;20042;-80
2022/07/01 11:02:42;;;;;;;4.50;1.73;;;;;;;25.14;34.87;101652.72;5179458;28;20065;-78
2022/07/01 11:05:15;;;;;;;5.57;1.25;;;;;;;23.61;38.42;101655.19;5197091;28;20085;-77
2022/07/01 11:07:46;;;;;;;5.30;1.60;;;;;;;22.57;40.44;101657.81;5196617;28;20038;-77
2022/07/01 11:10:19;;;;;;;5.47;1.30;;;;;;;24.18;37.78;101649.41;5196237;28;20030;-78
2022/07/01 11:12:51;;;;;;;7.00;1.65;;;;;;;24.60;35.50;101661.25;5198500;28;20110;-78
2022/07/01 11:15:23;;;;;;;5.70;1.80;;;;;;;25.96;35.92;101645.00;5205908;28;20042;-77
2022/07/01 11:17:55;;;;;;;6.25;1.70;;;;;;;25.63;35.97;101646.19;5190435;28;20068;-78
2022/07/01 11:20:31;;;;;;;3.88;1.23;;;;;;;26.57;35.00;101646.34;5197751;28;20322;-78
2022/07/01 11:23:02;;;;;;;5.78;1.85;;;;;;;25.48;35.65;101648.88;5214952;28;20070;-76
2022/07/01 11:25:34;;;;;;;5.50;1.55;;;;;;;24.97;35.74;101648.41;5213198;28;20030;-76
2022/07/01 11:28:05;;;;;;;3.67;1.42;;;;;;;23.86;38.30;101636.09;5190320;28;20046;-78
2022/07/01 11:30:37;;;;;;;6.13;1.98;;;;;;;22.87;39.86;101629.75;5207173;28;20030;-78
2022/07/01 11:33:09;;;;;;;4.20;1.30;;;;;;;23.63;40.56;101640.81;5194150;28;20136;-77
2022/07/01 11:41:25;;;;;;;5.80;2.10;;;;;;;23.94;38.08;101640.97;5211181;28;20046;-77
2022/07/01 11:43:56;;;;;;;4.00;1.27;;;;;;;26.34;36.84;101645.22;5212877;28;20026;-77
2022/07/01 11:46:28;;;;;;;4.43;1.63;;;;;;;26.45;33.14;101625.78;5212778;28;20060;-75
2022/07/01 11:48:59;;;;;;;3.30;1.20;;;;;;;25.89;33.82;101624.97;5212732;28;20278;-76
2022/07/01 11:51:31;;;;;;;3.22;1.45;;;;;;;26.76;33.34;101621.09;5201288;28;20018;-75
2022/07/01 11:54:03;;;;;;;4.07;1.40;;;;;;;27.71;32.91;101629.66;5215016;28;20448;-76